sensor_id;sensor_type;location;lat;lon;timestamp;temperature;humidity
66835;HTU21D;53743;51.100;5.874;2022-07-29T00:00:31;22.22;44.04
66835;HTU21D;53743;51.100;5.874;2022-07-29T00:01:31;22.22;43.79
66835;HTU21D;53743;51.100;5.874;2022-07-29T00:02:32;22.23;43.70
66835;HTU21D;53743;51.100;5.874;2022-07-29T00:03:33;22.22;43.78
66835;HTU21D;53743;51.100;5.874;2022-07-29T00:04:35;22.22;43.80
66835;HTU21D;53743;51.100;5.874;2022-07-29T00:05:38;22.21;43.73
66835;HTU21D;53743;51.100;5.874;2022-07-29T00:06:40;22.20;43.79
66835;HTU21D;53743;51.100;5.874;2022-07-29T00:07:41;22.20;43.74
66835;HTU21D;53743;51.100;5.874;2022-07-29T00:08:41;22.20;43.87
66835;HTU21D;53743;51.100;5.874;2022-07-29T00:09:42;22.19;43.83
66835;HTU21D;53743;51.100;5.874;2022-07-29T00:10:43;22.19;43.86
66835;HTU21D;53743;51.100;5.874;2022-07-29T00:11:43;22.19;43.87
66835;HTU21D;53743;51.100;5.874;2022-07-29T00:12:44;22.16;43.97
66835;HTU21D;53743;51.100;5.874;2022-07-29T00:13:44;22.13;44.06
66835;HTU21D;53743;51.100;5.874;2022-07-29T00:14:45;22.16;43.96
66835;HTU21D;53743;51.100;5.874;2022-07-29T00:15:46;22.18;43.99
66835;HTU21D;53743;51.100;5.874;2022-07-29T00:16:46;22.18;44.03
66835;HTU21D;53743;51.100;5.874;2022-07-29T00:17:47;22.17;44.06
66835;HTU21D;53743;51.100;5.874;2022-07-29T00:18:48;22.18;44.08
66835;HTU21D;53743;51.100;5.874;2022-07-29T00:19:48;22.17;44.07
66835;HTU21D;53743;51.100;5.874;2022-07-29T00:20:49;22.17;44.16
66835;HTU21D;53743;51.100;5.874;2022-07-29T00:21:50;22.17;44.18
66835;HTU21D;53743;51.100;5.874;2022-07-29T00:22:51;22.17;44.25
66835;HTU21D;53743;51.100;5.874;2022-07-29T00:23:52;22.17;44.18
66835;HTU21D;53743;51.100;5.874;2022-07-29T00:24:52;22.14;44.17
66835;HTU21D;53743;51.100;5.874;2022-07-29T00:25:53;22.16;44.15
66835;HTU21D;53743;51.100;5.874;2022-07-29T00:26:54;22.16;44.16
66835;HTU21D;53743;51.100;5.874;2022-07-29T00:27:54;22.16;44.28
66835;HTU21D;53743;51.100;5.874;2022-07-29T00:28:55;22.17;44.32
66835;HTU21D;53743;51.100;5.874;2022-07-29T00:29:55;22.23;44.13
66835;HTU21D;53743;51.100;5.874;2022-07-29T00:30:56;22.22;44.35
66835;HTU21D;53743;51.100;5.874;2022-07-29T00:31:57;22.14;44.70
66835;HTU21D;53743;51.100;5.874;2022-07-29T00:32:57;22.12;46.22
66835;HTU21D;53743;51.100;5.874;2022-07-29T00:33:58;22.07;46.79
66835;HTU21D;53743;51.100;5.874;2022-07-29T00:34:59;22.02;47.47
66835;HTU21D;53743;51.100;5.874;2022-07-29T00:36:18;21.88;48.47
66835;HTU21D;53743;51.100;5.874;2022-07-29T00:37:21;21.79;49.06
66835;HTU21D;53743;51.100;5.874;2022-07-29T00:38:21;21.69;48.72
66835;HTU21D;53743;51.100;5.874;2022-07-29T00:39:22;21.62;49.17
66835;HTU21D;53743;51.100;5.874;2022-07-29T00:40:23;21.55;49.11
66835;HTU21D;53743;51.100;5.874;2022-07-29T00:41:24;21.50;49.21
66835;HTU21D;53743;51.100;5.874;2022-07-29T00:42:24;21.45;49.40
66835;HTU21D;53743;51.100;5.874;2022-07-29T00:43:25;21.42;49.69
66835;HTU21D;53743;51.100;5.874;2022-07-29T00:44:26;21.36;50.14
66835;HTU21D;53743;51.100;5.874;2022-07-29T00:45:26;21.33;50.82
66835;HTU21D;53743;51.100;5.874;2022-07-29T00:46:27;21.31;49.95
66835;HTU21D;53743;51.100;5.874;2022-07-29T00:47:28;21.24;50.11
66835;HTU21D;53743;51.100;5.874;2022-07-29T00:48:29;21.22;50.46
66835;HTU21D;53743;51.100;5.874;2022-07-29T00:49:30;21.17;50.47
66835;HTU21D;53743;51.100;5.874;2022-07-29T00:50:31;21.14;50.53
66835;HTU21D;53743;51.100;5.874;2022-07-29T00:51:35;21.09;50.56
66835;HTU21D;53743;51.100;5.874;2022-07-29T00:52:38;21.05;51.94
66835;HTU21D;53743;51.100;5.874;2022-07-29T00:53:39;21.03;50.90
66835;HTU21D;53743;51.100;5.874;2022-07-29T00:54:42;21.02;51.56
66835;HTU21D;53743;51.100;5.874;2022-07-29T00:55:42;21.02;52.01
66835;HTU21D;53743;51.100;5.874;2022-07-29T00:56:44;21.04;52.52
66835;HTU21D;53743;51.100;5.874;2022-07-29T00:57:45;21.02;51.75
66835;HTU21D;53743;51.100;5.874;2022-07-29T00:58:48;21.01;52.43
66835;HTU21D;53743;51.100;5.874;2022-07-29T00:59:51;21.02;52.43
66835;HTU21D;53743;51.100;5.874;2022-07-29T01:00:51;21.00;52.78
66835;HTU21D;53743;51.100;5.874;2022-07-29T01:01:53;20.96;53.73
66835;HTU21D;53743;51.100;5.874;2022-07-29T01:02:54;20.94;52.98
66835;HTU21D;53743;51.100;5.874;2022-07-29T01:03:55;20.92;53.81
66835;HTU21D;53743;51.100;5.874;2022-07-29T01:04:57;20.95;54.36
66835;HTU21D;53743;51.100;5.874;2022-07-29T01:05:59;20.90;53.78
66835;HTU21D;53743;51.100;5.874;2022-07-29T01:07:02;20.87;54.64
66835;HTU21D;53743;51.100;5.874;2022-07-29T01:08:03;20.85;54.03
66835;HTU21D;53743;51.100;5.874;2022-07-29T01:09:06;20.81;54.78
66835;HTU21D;53743;51.100;5.874;2022-07-29T01:10:09;20.80;54.31
66835;HTU21D;53743;51.100;5.874;2022-07-29T01:12:27;20.73;54.60
66835;HTU21D;53743;51.100;5.874;2022-07-29T01:13:33;20.73;54.42
66835;HTU21D;53743;51.100;5.874;2022-07-29T01:14:35;20.74;54.36
66835;HTU21D;53743;51.100;5.874;2022-07-29T01:15:44;20.72;54.30
66835;HTU21D;53743;51.100;5.874;2022-07-29T01:16:54;20.72;54.34
66835;HTU21D;53743;51.100;5.874;2022-07-29T01:18:46;20.74;54.41
66835;HTU21D;53743;51.100;5.874;2022-07-29T01:30:12;20.26;59.85
66835;HTU21D;53743;51.100;5.874;2022-07-29T01:31:18;20.20;60.54
66835;HTU21D;53743;51.100;5.874;2022-07-29T01:32:26;20.15;61.24
66835;HTU21D;53743;51.100;5.874;2022-07-29T01:33:34;20.07;61.76
66835;HTU21D;53743;51.100;5.874;2022-07-29T01:34:57;20.00;63.21
66835;HTU21D;53743;51.100;5.874;2022-07-29T01:36:17;19.89;63.21
66835;HTU21D;53743;51.100;5.874;2022-07-29T01:38:50;19.70;65.82
66835;HTU21D;53743;51.100;5.874;2022-07-29T01:40:02;19.57;65.81
66835;HTU21D;53743;51.100;5.874;2022-07-29T01:41:09;19.43;66.31
66835;HTU21D;53743;51.100;5.874;2022-07-29T01:43:49;19.27;67.83
66835;HTU21D;53743;51.100;5.874;2022-07-29T01:45:00;19.16;68.23
66835;HTU21D;53743;51.100;5.874;2022-07-29T01:46:11;19.07;68.33
66835;HTU21D;53743;51.100;5.874;2022-07-29T01:47:19;18.99;69.53
66835;HTU21D;53743;51.100;5.874;2022-07-29T01:48:48;18.96;68.65
66835;HTU21D;53743;51.100;5.874;2022-07-29T01:49:56;18.89;68.31
66835;HTU21D;53743;51.100;5.874;2022-07-29T01:52:42;18.83;69.72
66835;HTU21D;53743;51.100;5.874;2022-07-29T01:54:08;18.82;69.82
66835;HTU21D;53743;51.100;5.874;2022-07-29T01:55:16;18.83;70.00
66835;HTU21D;53743;51.100;5.874;2022-07-29T01:56:23;18.80;70.39
66835;HTU21D;53743;51.100;5.874;2022-07-29T01:57:29;18.79;69.85
66835;HTU21D;53743;51.100;5.874;2022-07-29T01:58:35;18.81;70.25
66835;HTU21D;53743;51.100;5.874;2022-07-29T01:59:42;18.77;70.02
66835;HTU21D;53743;51.100;5.874;2022-07-29T02:00:46;18.77;69.63
66835;HTU21D;53743;51.100;5.874;2022-07-29T02:01:53;18.77;70.21
66835;HTU21D;53743;51.100;5.874;2022-07-29T02:02:57;18.78;70.82
66835;HTU21D;53743;51.100;5.874;2022-07-29T02:04:06;18.74;70.77
66835;HTU21D;53743;51.100;5.874;2022-07-29T02:05:12;18.74;70.31
66835;HTU21D;53743;51.100;5.874;2022-07-29T02:06:21;18.76;70.32
66835;HTU21D;53743;51.100;5.874;2022-07-29T02:07:26;18.72;70.27
66835;HTU21D;53743;51.100;5.874;2022-07-29T02:08:32;18.70;71.43
66835;HTU21D;53743;51.100;5.874;2022-07-29T02:09:36;18.71;71.86
66835;HTU21D;53743;51.100;5.874;2022-07-29T02:10:40;18.74;70.48
66835;HTU21D;53743;51.100;5.874;2022-07-29T02:11:49;18.77;70.54
66835;HTU21D;53743;51.100;5.874;2022-07-29T02:12:54;18.77;70.42
66835;HTU21D;53743;51.100;5.874;2022-07-29T02:13:58;18.81;70.03
66835;HTU21D;53743;51.100;5.874;2022-07-29T02:15:03;18.83;71.24
66835;HTU21D;53743;51.100;5.874;2022-07-29T02:16:08;18.86;70.35
66835;HTU21D;53743;51.100;5.874;2022-07-29T02:17:13;18.88;70.84
66835;HTU21D;53743;51.100;5.874;2022-07-29T02:18:22;18.91;70.37
66835;HTU21D;53743;51.100;5.874;2022-07-29T02:19:27;18.91;70.97
66835;HTU21D;53743;51.100;5.874;2022-07-29T02:20:33;18.92;70.97
66835;HTU21D;53743;51.100;5.874;2022-07-29T02:21:36;18.92;71.95
66835;HTU21D;53743;51.100;5.874;2022-07-29T02:22:39;18.93;71.46
66835;HTU21D;53743;51.100;5.874;2022-07-29T02:23:44;18.87;71.38
66835;HTU21D;53743;51.100;5.874;2022-07-29T02:24:50;18.85;71.71
66835;HTU21D;53743;51.100;5.874;2022-07-29T02:25:57;18.82;71.48
66835;HTU21D;53743;51.100;5.874;2022-07-29T02:27:01;18.83;72.41
66835;HTU21D;53743;51.100;5.874;2022-07-29T02:28:06;18.86;72.40
66835;HTU21D;53743;51.100;5.874;2022-07-29T02:29:09;18.85;72.89
66835;HTU21D;53743;51.100;5.874;2022-07-29T02:30:13;18.76;73.01
66835;HTU21D;53743;51.100;5.874;2022-07-29T02:31:15;18.68;73.06
66835;HTU21D;53743;51.100;5.874;2022-07-29T02:32:20;18.62;73.94
66835;HTU21D;53743;51.100;5.874;2022-07-29T02:33:25;18.56;72.90
66835;HTU21D;53743;51.100;5.874;2022-07-29T02:34:29;18.56;72.96
66835;HTU21D;53743;51.100;5.874;2022-07-29T02:35:30;18.55;72.93
66835;HTU21D;53743;51.100;5.874;2022-07-29T02:36:32;18.55;75.10
66835;HTU21D;53743;51.100;5.874;2022-07-29T02:37:36;18.52;72.83
66835;HTU21D;53743;51.100;5.874;2022-07-29T02:38:41;18.54;72.52
66835;HTU21D;53743;51.100;5.874;2022-07-29T02:39:55;18.56;73.18
66835;HTU21D;53743;51.100;5.874;2022-07-29T02:41:07;18.55;73.09
66835;HTU21D;53743;51.100;5.874;2022-07-29T02:42:15;18.52;73.80
66835;HTU21D;53743;51.100;5.874;2022-07-29T02:43:19;18.50;73.57
66835;HTU21D;53743;51.100;5.874;2022-07-29T02:44:24;18.51;73.78
66835;HTU21D;53743;51.100;5.874;2022-07-29T02:45:27;18.52;73.97
66835;HTU21D;53743;51.100;5.874;2022-07-29T02:46:33;18.53;74.35
66835;HTU21D;53743;51.100;5.874;2022-07-29T02:47:49;18.51;76.46
66835;HTU21D;53743;51.100;5.874;2022-07-29T02:48:59;18.49;74.57
66835;HTU21D;53743;51.100;5.874;2022-07-29T02:50:11;18.50;74.07
66835;HTU21D;53743;51.100;5.874;2022-07-29T02:51:27;18.52;76.37
66835;HTU21D;53743;51.100;5.874;2022-07-29T02:53:47;18.44;75.88
66835;HTU21D;53743;51.100;5.874;2022-07-29T02:54:56;18.44;74.63
66835;HTU21D;53743;51.100;5.874;2022-07-29T02:56:15;18.50;74.69
66835;HTU21D;53743;51.100;5.874;2022-07-29T02:57:33;18.53;74.25
66835;HTU21D;53743;51.100;5.874;2022-07-29T02:58:42;18.56;74.51
66835;HTU21D;53743;51.100;5.874;2022-07-29T02:59:51;18.57;74.71
66835;HTU21D;53743;51.100;5.874;2022-07-29T03:01:03;18.58;74.75
66835;HTU21D;53743;51.100;5.874;2022-07-29T03:02:11;18.63;74.87
66835;HTU21D;53743;51.100;5.874;2022-07-29T03:03:19;18.65;74.96
66835;HTU21D;53743;51.100;5.874;2022-07-29T03:04:24;18.62;75.42
66835;HTU21D;53743;51.100;5.874;2022-07-29T03:05:28;18.62;75.31
66835;HTU21D;53743;51.100;5.874;2022-07-29T03:06:32;18.61;75.22
66835;HTU21D;53743;51.100;5.874;2022-07-29T03:07:36;18.62;75.63
66835;HTU21D;53743;51.100;5.874;2022-07-29T03:08:39;18.61;75.39
66835;HTU21D;53743;51.100;5.874;2022-07-29T03:09:42;18.61;75.48
66835;HTU21D;53743;51.100;5.874;2022-07-29T03:10:46;18.63;75.50
66835;HTU21D;53743;51.100;5.874;2022-07-29T03:11:49;18.65;75.57
66835;HTU21D;53743;51.100;5.874;2022-07-29T03:12:51;18.67;75.80
66835;HTU21D;53743;51.100;5.874;2022-07-29T03:13:54;18.64;77.85
66835;HTU21D;53743;51.100;5.874;2022-07-29T03:14:56;18.65;76.49
66835;HTU21D;53743;51.100;5.874;2022-07-29T03:16:00;18.62;76.79
66835;HTU21D;53743;51.100;5.874;2022-07-29T03:17:02;18.63;76.05
66835;HTU21D;53743;51.100;5.874;2022-07-29T03:18:03;18.61;75.79
66835;HTU21D;53743;51.100;5.874;2022-07-29T03:19:06;18.53;76.89
66835;HTU21D;53743;51.100;5.874;2022-07-29T03:20:08;18.53;75.15
66835;HTU21D;53743;51.100;5.874;2022-07-29T03:21:09;18.53;76.55
66835;HTU21D;53743;51.100;5.874;2022-07-29T03:22:11;18.52;75.02
66835;HTU21D;53743;51.100;5.874;2022-07-29T03:23:18;18.51;76.39
66835;HTU21D;53743;51.100;5.874;2022-07-29T03:24:35;18.50;75.61
66835;HTU21D;53743;51.100;5.874;2022-07-29T03:25:37;18.50;75.76
66835;HTU21D;53743;51.100;5.874;2022-07-29T03:26:38;18.49;75.80
66835;HTU21D;53743;51.100;5.874;2022-07-29T03:27:39;18.49;75.81
66835;HTU21D;53743;51.100;5.874;2022-07-29T03:28:40;18.49;74.94
66835;HTU21D;53743;51.100;5.874;2022-07-29T03:29:40;18.46;76.32
66835;HTU21D;53743;51.100;5.874;2022-07-29T03:30:41;18.49;74.76
66835;HTU21D;53743;51.100;5.874;2022-07-29T03:31:42;18.47;74.80
66835;HTU21D;53743;51.100;5.874;2022-07-29T03:32:43;18.46;76.33
66835;HTU21D;53743;51.100;5.874;2022-07-29T03:33:44;18.44;74.60
66835;HTU21D;53743;51.100;5.874;2022-07-29T03:34:45;18.48;74.60
66835;HTU21D;53743;51.100;5.874;2022-07-29T03:35:45;18.49;74.76
66835;HTU21D;53743;51.100;5.874;2022-07-29T03:36:46;18.51;74.99
66835;HTU21D;53743;51.100;5.874;2022-07-29T03:37:48;18.52;75.09
66835;HTU21D;53743;51.100;5.874;2022-07-29T03:38:50;18.54;75.14
66835;HTU21D;53743;51.100;5.874;2022-07-29T03:39:52;18.55;75.54
66835;HTU21D;53743;51.100;5.874;2022-07-29T03:41:01;18.58;74.96
66835;HTU21D;53743;51.100;5.874;2022-07-29T03:42:08;18.55;75.09
66835;HTU21D;53743;51.100;5.874;2022-07-29T03:43:15;18.54;74.79
66835;HTU21D;53743;51.100;5.874;2022-07-29T03:44:20;18.54;74.50
66835;HTU21D;53743;51.100;5.874;2022-07-29T03:45:25;18.46;75.67
66835;HTU21D;53743;51.100;5.874;2022-07-29T03:46:29;18.40;75.77
66835;HTU21D;53743;51.100;5.874;2022-07-29T03:47:35;18.43;76.19
66835;HTU21D;53743;51.100;5.874;2022-07-29T03:48:45;18.43;76.50
66835;HTU21D;53743;51.100;5.874;2022-07-29T03:49:50;18.42;75.76
66835;HTU21D;53743;51.100;5.874;2022-07-29T03:50:54;18.35;77.15
66835;HTU21D;53743;51.100;5.874;2022-07-29T03:51:56;18.34;76.64
66835;HTU21D;53743;51.100;5.874;2022-07-29T03:52:57;18.27;76.87
66835;HTU21D;53743;51.100;5.874;2022-07-29T03:53:58;18.17;77.73
66835;HTU21D;53743;51.100;5.874;2022-07-29T03:55:00;18.19;76.64
66835;HTU21D;53743;51.100;5.874;2022-07-29T03:56:03;18.14;75.96
66835;HTU21D;53743;51.100;5.874;2022-07-29T03:57:06;18.11;76.15
66835;HTU21D;53743;51.100;5.874;2022-07-29T03:58:10;18.08;76.35
66835;HTU21D;53743;51.100;5.874;2022-07-29T03:59:17;18.06;76.59
66835;HTU21D;53743;51.100;5.874;2022-07-29T04:00:20;18.04;76.54
66835;HTU21D;53743;51.100;5.874;2022-07-29T04:01:24;18.02;76.78
66835;HTU21D;53743;51.100;5.874;2022-07-29T04:02:26;18.04;76.98
66835;HTU21D;53743;51.100;5.874;2022-07-29T04:03:27;18.05;77.05
66835;HTU21D;53743;51.100;5.874;2022-07-29T04:04:28;18.07;77.28
66835;HTU21D;53743;51.100;5.874;2022-07-29T04:05:29;18.10;77.43
66835;HTU21D;53743;51.100;5.874;2022-07-29T04:06:38;18.15;77.47
66835;HTU21D;53743;51.100;5.874;2022-07-29T04:07:43;18.19;77.47
66835;HTU21D;53743;51.100;5.874;2022-07-29T04:08:52;18.20;77.82
66835;HTU21D;53743;51.100;5.874;2022-07-29T04:09:53;18.23;78.03
66835;HTU21D;53743;51.100;5.874;2022-07-29T04:10:54;18.23;78.04
66835;HTU21D;53743;51.100;5.874;2022-07-29T04:11:55;18.24;78.08
66835;HTU21D;53743;51.100;5.874;2022-07-29T04:12:56;18.26;78.15
66835;HTU21D;53743;51.100;5.874;2022-07-29T04:13:57;18.29;78.04
66835;HTU21D;53743;51.100;5.874;2022-07-29T04:14:57;18.33;77.96
66835;HTU21D;53743;51.100;5.874;2022-07-29T04:15:58;18.35;78.05
66835;HTU21D;53743;51.100;5.874;2022-07-29T04:17:00;18.37;78.12
66835;HTU21D;53743;51.100;5.874;2022-07-29T04:18:02;18.38;78.30
66835;HTU21D;53743;51.100;5.874;2022-07-29T04:19:02;18.39;78.35
66835;HTU21D;53743;51.100;5.874;2022-07-29T04:20:04;18.42;78.39
66835;HTU21D;53743;51.100;5.874;2022-07-29T04:21:05;18.43;78.57
66835;HTU21D;53743;51.100;5.874;2022-07-29T04:22:06;18.48;78.69
66835;HTU21D;53743;51.100;5.874;2022-07-29T04:23:07;18.49;78.53
66835;HTU21D;53743;51.100;5.874;2022-07-29T04:24:08;18.50;78.50
66835;HTU21D;53743;51.100;5.874;2022-07-29T04:25:09;18.52;78.47
66835;HTU21D;53743;51.100;5.874;2022-07-29T04:26:09;18.54;78.55
66835;HTU21D;53743;51.100;5.874;2022-07-29T04:27:11;18.55;78.82
66835;HTU21D;53743;51.100;5.874;2022-07-29T04:28:11;18.55;78.78
66835;HTU21D;53743;51.100;5.874;2022-07-29T04:29:12;18.55;78.71
66835;HTU21D;53743;51.100;5.874;2022-07-29T04:30:14;18.56;78.70
66835;HTU21D;53743;51.100;5.874;2022-07-29T04:31:15;18.56;78.82
66835;HTU21D;53743;51.100;5.874;2022-07-29T04:32:15;18.57;78.85
66835;HTU21D;53743;51.100;5.874;2022-07-29T04:33:16;18.59;78.56
66835;HTU21D;53743;51.100;5.874;2022-07-29T04:34:17;18.59;78.35
66835;HTU21D;53743;51.100;5.874;2022-07-29T04:35:19;18.61;78.20
66835;HTU21D;53743;51.100;5.874;2022-07-29T04:36:20;18.58;78.19
66835;HTU21D;53743;51.100;5.874;2022-07-29T04:37:20;18.58;78.26
66835;HTU21D;53743;51.100;5.874;2022-07-29T04:38:21;18.59;77.77
66835;HTU21D;53743;51.100;5.874;2022-07-29T04:39:22;18.62;77.63
66835;HTU21D;53743;51.100;5.874;2022-07-29T04:40:23;18.66;77.56
66835;HTU21D;53743;51.100;5.874;2022-07-29T04:41:23;18.69;77.82
66835;HTU21D;53743;51.100;5.874;2022-07-29T04:42:24;18.70;77.40
66835;HTU21D;53743;51.100;5.874;2022-07-29T04:43:25;18.72;77.42
66835;HTU21D;53743;51.100;5.874;2022-07-29T04:44:26;18.74;77.31
66835;HTU21D;53743;51.100;5.874;2022-07-29T04:45:28;18.77;77.26
66835;HTU21D;53743;51.100;5.874;2022-07-29T04:46:28;18.77;77.15
66835;HTU21D;53743;51.100;5.874;2022-07-29T04:47:29;18.77;77.21
66835;HTU21D;53743;51.100;5.874;2022-07-29T04:48:30;18.79;77.05
66835;HTU21D;53743;51.100;5.874;2022-07-29T04:49:30;18.77;77.01
66835;HTU21D;53743;51.100;5.874;2022-07-29T04:50:31;18.77;76.86
66835;HTU21D;53743;51.100;5.874;2022-07-29T04:51:32;18.78;76.77
66835;HTU21D;53743;51.100;5.874;2022-07-29T04:52:33;18.79;76.73
66835;HTU21D;53743;51.100;5.874;2022-07-29T04:53:35;18.79;76.57
66835;HTU21D;53743;51.100;5.874;2022-07-29T04:54:36;18.81;76.53
66835;HTU21D;53743;51.100;5.874;2022-07-29T04:55:36;18.84;76.28
66835;HTU21D;53743;51.100;5.874;2022-07-29T04:56:37;18.86;76.17
66835;HTU21D;53743;51.100;5.874;2022-07-29T04:57:38;18.88;76.19
66835;HTU21D;53743;51.100;5.874;2022-07-29T04:58:38;18.92;76.28
66835;HTU21D;53743;51.100;5.874;2022-07-29T04:59:39;18.92;76.41
66835;HTU21D;53743;51.100;5.874;2022-07-29T05:00:40;18.93;76.33
66835;HTU21D;53743;51.100;5.874;2022-07-29T05:01:41;18.94;76.21
66835;HTU21D;53743;51.100;5.874;2022-07-29T05:02:41;18.95;76.22
66835;HTU21D;53743;51.100;5.874;2022-07-29T05:03:42;18.97;76.24
66835;HTU21D;53743;51.100;5.874;2022-07-29T05:04:43;18.98;76.34
66835;HTU21D;53743;51.100;5.874;2022-07-29T05:05:44;19.01;76.50
66835;HTU21D;53743;51.100;5.874;2022-07-29T05:06:45;19.01;76.18
66835;HTU21D;53743;51.100;5.874;2022-07-29T05:07:45;19.03;76.27
66835;HTU21D;53743;51.100;5.874;2022-07-29T05:08:46;19.07;76.22
66835;HTU21D;53743;51.100;5.874;2022-07-29T05:09:47;19.08;76.17
66835;HTU21D;53743;51.100;5.874;2022-07-29T05:10:47;19.07;76.14
66835;HTU21D;53743;51.100;5.874;2022-07-29T05:11:48;19.03;76.45
66835;HTU21D;53743;51.100;5.874;2022-07-29T05:12:49;19.06;76.34
66835;HTU21D;53743;51.100;5.874;2022-07-29T05:13:49;19.01;76.49
66835;HTU21D;53743;51.100;5.874;2022-07-29T05:14:50;18.97;76.35
66835;HTU21D;53743;51.100;5.874;2022-07-29T05:15:51;18.96;76.35
66835;HTU21D;53743;51.100;5.874;2022-07-29T05:16:52;18.94;76.42
66835;HTU21D;53743;51.100;5.874;2022-07-29T05:17:56;18.95;76.54
66835;HTU21D;53743;51.100;5.874;2022-07-29T05:18:57;18.97;76.80
66835;HTU21D;53743;51.100;5.874;2022-07-29T05:19:58;18.98;77.02
66835;HTU21D;53743;51.100;5.874;2022-07-29T05:20:58;18.99;77.35
66835;HTU21D;53743;51.100;5.874;2022-07-29T05:21:59;19.00;77.45
66835;HTU21D;53743;51.100;5.874;2022-07-29T05:23:01;19.02;77.52
66835;HTU21D;53743;51.100;5.874;2022-07-29T05:24:03;19.05;77.59
66835;HTU21D;53743;51.100;5.874;2022-07-29T05:25:04;19.07;78.08
66835;HTU21D;53743;51.100;5.874;2022-07-29T05:26:05;19.07;78.00
66835;HTU21D;53743;51.100;5.874;2022-07-29T05:27:06;19.09;77.81
66835;HTU21D;53743;51.100;5.874;2022-07-29T05:28:07;19.08;77.54
66835;HTU21D;53743;51.100;5.874;2022-07-29T05:29:08;19.08;77.71
66835;HTU21D;53743;51.100;5.874;2022-07-29T05:30:09;19.10;77.92
66835;HTU21D;53743;51.100;5.874;2022-07-29T05:31:10;19.10;77.63
66835;HTU21D;53743;51.100;5.874;2022-07-29T05:32:11;19.12;77.69
66835;HTU21D;53743;51.100;5.874;2022-07-29T05:33:12;19.16;77.90
66835;HTU21D;53743;51.100;5.874;2022-07-29T05:34:13;19.18;77.86
66835;HTU21D;53743;51.100;5.874;2022-07-29T05:35:15;19.15;78.31
66835;HTU21D;53743;51.100;5.874;2022-07-29T05:36:16;19.14;77.47
66835;HTU21D;53743;51.100;5.874;2022-07-29T05:37:17;19.12;77.69
66835;HTU21D;53743;51.100;5.874;2022-07-29T05:38:18;19.09;77.91
66835;HTU21D;53743;51.100;5.874;2022-07-29T05:39:19;19.15;77.21
66835;HTU21D;53743;51.100;5.874;2022-07-29T05:40:20;19.14;77.42
66835;HTU21D;53743;51.100;5.874;2022-07-29T05:41:20;19.09;77.37
66835;HTU21D;53743;51.100;5.874;2022-07-29T05:42:21;19.05;76.80
66835;HTU21D;53743;51.100;5.874;2022-07-29T05:43:22;19.05;77.21
66835;HTU21D;53743;51.100;5.874;2022-07-29T05:44:23;19.07;76.78
66835;HTU21D;53743;51.100;5.874;2022-07-29T05:45:23;19.05;77.02
66835;HTU21D;53743;51.100;5.874;2022-07-29T05:46:24;19.07;76.46
66835;HTU21D;53743;51.100;5.874;2022-07-29T05:47:25;19.13;76.52
66835;HTU21D;53743;51.100;5.874;2022-07-29T05:48:26;19.18;76.44
66835;HTU21D;53743;51.100;5.874;2022-07-29T05:49:26;19.25;76.33
66835;HTU21D;53743;51.100;5.874;2022-07-29T05:50:27;19.32;76.34
66835;HTU21D;53743;51.100;5.874;2022-07-29T05:51:28;19.38;76.41
66835;HTU21D;53743;51.100;5.874;2022-07-29T05:52:30;19.45;75.96
66835;HTU21D;53743;51.100;5.874;2022-07-29T05:53:30;19.53;75.82
66835;HTU21D;53743;51.100;5.874;2022-07-29T05:54:31;19.57;75.77
66835;HTU21D;53743;51.100;5.874;2022-07-29T05:55:32;19.62;75.68
66835;HTU21D;53743;51.100;5.874;2022-07-29T05:56:32;19.69;75.21
66835;HTU21D;53743;51.100;5.874;2022-07-29T05:57:33;19.74;75.23
66835;HTU21D;53743;51.100;5.874;2022-07-29T05:58:34;19.81;74.60
66835;HTU21D;53743;51.100;5.874;2022-07-29T05:59:36;19.85;74.18
66835;HTU21D;53743;51.100;5.874;2022-07-29T06:00:38;19.87;73.85
66835;HTU21D;53743;51.100;5.874;2022-07-29T06:01:38;19.89;73.49
66835;HTU21D;53743;51.100;5.874;2022-07-29T06:02:40;19.88;73.40
66835;HTU21D;53743;51.100;5.874;2022-07-29T06:03:40;19.87;73.61
66835;HTU21D;53743;51.100;5.874;2022-07-29T06:04:41;19.88;73.44
66835;HTU21D;53743;51.100;5.874;2022-07-29T06:05:42;19.84;74.17
66835;HTU21D;53743;51.100;5.874;2022-07-29T06:06:43;19.79;73.77
66835;HTU21D;53743;51.100;5.874;2022-07-29T06:07:43;19.76;74.64
66835;HTU21D;53743;51.100;5.874;2022-07-29T06:08:44;19.74;75.06
66835;HTU21D;53743;51.100;5.874;2022-07-29T06:09:45;19.75;73.99
66835;HTU21D;53743;51.100;5.874;2022-07-29T06:10:45;19.74;73.99
66835;HTU21D;53743;51.100;5.874;2022-07-29T06:11:46;19.74;73.95
66835;HTU21D;53743;51.100;5.874;2022-07-29T06:12:47;19.77;73.86
66835;HTU21D;53743;51.100;5.874;2022-07-29T06:13:47;19.79;74.07
66835;HTU21D;53743;51.100;5.874;2022-07-29T06:14:48;19.82;74.06
66835;HTU21D;53743;51.100;5.874;2022-07-29T06:15:49;19.84;74.26
66835;HTU21D;53743;51.100;5.874;2022-07-29T06:16:49;19.86;74.30
66835;HTU21D;53743;51.100;5.874;2022-07-29T06:17:51;19.87;74.31
66835;HTU21D;53743;51.100;5.874;2022-07-29T06:18:52;19.89;74.31
66835;HTU21D;53743;51.100;5.874;2022-07-29T06:19:53;19.95;74.35
66835;HTU21D;53743;51.100;5.874;2022-07-29T06:20:54;19.97;74.48
66835;HTU21D;53743;51.100;5.874;2022-07-29T06:21:54;19.98;74.65
66835;HTU21D;53743;51.100;5.874;2022-07-29T06:22:55;20.00;74.99
66835;HTU21D;53743;51.100;5.874;2022-07-29T06:23:57;20.02;75.06
66835;HTU21D;53743;51.100;5.874;2022-07-29T06:24:58;20.02;74.92
66835;HTU21D;53743;51.100;5.874;2022-07-29T06:25:58;20.02;74.83
66835;HTU21D;53743;51.100;5.874;2022-07-29T06:26:59;20.01;75.00
66835;HTU21D;53743;51.100;5.874;2022-07-29T06:28:00;19.96;75.12
66835;HTU21D;53743;51.100;5.874;2022-07-29T06:29:01;19.94;75.58
66835;HTU21D;53743;51.100;5.874;2022-07-29T06:30:03;19.89;75.59
66835;HTU21D;53743;51.100;5.874;2022-07-29T06:31:06;19.85;76.03
66835;HTU21D;53743;51.100;5.874;2022-07-29T06:32:08;19.83;75.86
66835;HTU21D;53743;51.100;5.874;2022-07-29T06:33:09;19.80;75.89
66835;HTU21D;53743;51.100;5.874;2022-07-29T06:34:15;19.74;76.95
66835;HTU21D;53743;51.100;5.874;2022-07-29T06:35:16;19.70;76.34
66835;HTU21D;53743;51.100;5.874;2022-07-29T06:36:17;19.68;76.41
66835;HTU21D;53743;51.100;5.874;2022-07-29T06:37:18;19.62;76.24
66835;HTU21D;53743;51.100;5.874;2022-07-29T06:38:18;19.60;76.21
66835;HTU21D;53743;51.100;5.874;2022-07-29T06:39:20;19.56;76.21
66835;HTU21D;53743;51.100;5.874;2022-07-29T06:40:21;19.53;76.23
66835;HTU21D;53743;51.100;5.874;2022-07-29T06:41:40;19.53;75.94
66835;HTU21D;53743;51.100;5.874;2022-07-29T06:42:44;19.53;75.73
66835;HTU21D;53743;51.100;5.874;2022-07-29T06:43:45;19.56;75.44
66835;HTU21D;53743;51.100;5.874;2022-07-29T06:44:46;19.54;75.09
66835;HTU21D;53743;51.100;5.874;2022-07-29T06:45:46;19.53;74.90
66835;HTU21D;53743;51.100;5.874;2022-07-29T06:46:47;19.56;74.18
66835;HTU21D;53743;51.100;5.874;2022-07-29T06:47:50;19.56;74.19
66835;HTU21D;53743;51.100;5.874;2022-07-29T06:48:51;19.57;73.98
66835;HTU21D;53743;51.100;5.874;2022-07-29T06:49:52;19.55;73.73